sensor_id;sensor_type;location;lat;lon;timestamp;P1;P2;P0
57289;PMS5003;43523;53.022;-1.178;2024-03-06T00:00:28;24;23;
57289;PMS5003;43523;53.022;-1.178;2024-03-06T00:01:31;22;19;
57289;PMS5003;43523;53.022;-1.178;2024-03-06T00:02:35;23;23;
57289;PMS5003;43523;53.022;-1.178;2024-03-06T00:03:37;28;25;
57289;PMS5003;43523;53.022;-1.178;2024-03-06T00:04:45;30;26;
57289;PMS5003;43523;53.022;-1.178;2024-03-06T00:05:47;32;27;
57289;PMS5003;43523;53.022;-1.178;2024-03-06T00:06:49;30;29;
57289;PMS5003;43523;53.022;-1.178;2024-03-06T00:07:52;30;30;
57289;PMS5003;43523;53.022;-1.178;2024-03-06T00:08:54;36;31;
57289;PMS5003;43523;53.022;-1.178;2024-03-06T00:10:02;34;28;
57289;PMS5003;43523;53.022;-1.178;2024-03-06T00:11:06;33;33;
57289;PMS5003;43523;53.022;-1.178;2024-03-06T00:12:14;40;38;
57289;PMS5003;43523;53.022;-1.178;2024-03-06T00:13:17;41;37;
57289;PMS5003;43523;53.022;-1.178;2024-03-06T00:14:20;42;37;
57289;PMS5003;43523;53.022;-1.178;2024-03-06T00:15:22;41;36;
57289;PMS5003;43523;53.022;-1.178;2024-03-06T00:16:25;42;35;
57289;PMS5003;43523;53.022;-1.178;2024-03-06T00:17:28;36;32;
57289;PMS5003;43523;53.022;-1.178;2024-03-06T00:18:30;33;30;
57289;PMS5003;43523;53.022;-1.178;2024-03-06T00:19:33;35;33;
57289;PMS5003;43523;53.022;-1.178;2024-03-06T00:20:38;29;25;
57289;PMS5003;43523;53.022;-1.178;2024-03-06T00:21:45;34;30;
57289;PMS5003;43523;53.022;-1.178;2024-03-06T00:22:47;30;30;
57289;PMS5003;43523;53.022;-1.178;2024-03-06T00:23:50;34;29;
57289;PMS5003;43523;53.022;-1.178;2024-03-06T00:24:52;35;29;
57289;PMS5003;43523;53.022;-1.178;2024-03-06T00:25:55;40;36;
57289;PMS5003;43523;53.022;-1.178;2024-03-06T00:26:58;48;41;
57289;PMS5003;43523;53.022;-1.178;2024-03-06T00:28:01;37;34;
57289;PMS5003;43523;53.022;-1.178;2024-03-06T00:29:04;36;31;
57289;PMS5003;43523;53.022;-1.178;2024-03-06T00:30:07;37;32;
57289;PMS5003;43523;53.022;-1.178;2024-03-06T00:31:11;35;27;
57289;PMS5003;43523;53.022;-1.178;2024-03-06T00:32:14;35;34;
57289;PMS5003;43523;53.022;-1.178;2024-03-06T00:33:17;30;27;
57289;PMS5003;43523;53.022;-1.178;2024-03-06T00:34:19;35;32;
57289;PMS5003;43523;53.022;-1.178;2024-03-06T00:35:21;31;26;
57289;PMS5003;43523;53.022;-1.178;2024-03-06T00:36:24;38;32;
57289;PMS5003;43523;53.022;-1.178;2024-03-06T00:37:27;36;27;
57289;PMS5003;43523;53.022;-1.178;2024-03-06T00:38:29;33;26;
57289;PMS5003;43523;53.022;-1.178;2024-03-06T00:39:31;34;32;
57289;PMS5003;43523;53.022;-1.178;2024-03-06T00:40:35;39;31;
57289;PMS5003;43523;53.022;-1.178;2024-03-06T00:41:38;35;29;
57289;PMS5003;43523;53.022;-1.178;2024-03-06T00:42:41;34;30;
57289;PMS5003;43523;53.022;-1.178;2024-03-06T00:43:45;43;33;
57289;PMS5003;43523;53.022;-1.178;2024-03-06T00:44:47;36;34;
57289;PMS5003;43523;53.022;-1.178;2024-03-06T00:45:50;35;30;
57289;PMS5003;43523;53.022;-1.178;2024-03-06T00:46:53;35;31;
57289;PMS5003;43523;53.022;-1.178;2024-03-06T00:47:55;31;29;
57289;PMS5003;43523;53.022;-1.178;2024-03-06T00:48:59;34;28;
57289;PMS5003;43523;53.022;-1.178;2024-03-06T00:50:01;31;28;
57289;PMS5003;43523;53.022;-1.178;2024-03-06T00:51:04;41;34;
57289;PMS5003;43523;53.022;-1.178;2024-03-06T00:52:07;33;30;
57289;PMS5003;43523;53.022;-1.178;2024-03-06T00:53:11;37;31;
57289;PMS5003;43523;53.022;-1.178;2024-03-06T00:54:14;38;31;
57289;PMS5003;43523;53.022;-1.178;2024-03-06T00:55:18;35;31;
57289;PMS5003;43523;53.022;-1.178;2024-03-06T00:56:20;39;32;
57289;PMS5003;43523;53.022;-1.178;2024-03-06T00:57:23;33;31;
57289;PMS5003;43523;53.022;-1.178;2024-03-06T00:58:26;35;31;
57289;PMS5003;43523;53.022;-1.178;2024-03-06T00:59:28;36;30;
57289;PMS5003;43523;53.022;-1.178;2024-03-06T01:00:30;29;28;
57289;PMS5003;43523;53.022;-1.178;2024-03-06T01:01:32;35;32;
57289;PMS5003;43523;53.022;-1.178;2024-03-06T01:02:36;39;34;
57289;PMS5003;43523;53.022;-1.178;2024-03-06T01:03:39;33;28;
57289;PMS5003;43523;53.022;-1.178;2024-03-06T01:04:41;31;29;
57289;PMS5003;43523;53.022;-1.178;2024-03-06T01:05:45;35;33;
57289;PMS5003;43523;53.022;-1.178;2024-03-06T01:06:47;28;24;
57289;PMS5003;43523;53.022;-1.178;2024-03-06T01:07:49;35;32;
57289;PMS5003;43523;53.022;-1.178;2024-03-06T01:08:52;37;32;
57289;PMS5003;43523;53.022;-1.178;2024-03-06T01:09:54;37;29;
57289;PMS5003;43523;53.022;-1.178;2024-03-06T01:10:56;34;31;
57289;PMS5003;43523;53.022;-1.178;2024-03-06T01:11:59;25;25;
57289;PMS5003;43523;53.022;-1.178;2024-03-06T01:13:01;28;26;
57289;PMS5003;43523;53.022;-1.178;2024-03-06T01:14:04;27;27;
57289;PMS5003;43523;53.022;-1.178;2024-03-06T01:15:12;30;26;
57289;PMS5003;43523;53.022;-1.178;2024-03-06T01:16:16;36;28;
57289;PMS5003;43523;53.022;-1.178;2024-03-06T01:17:18;30;27;
57289;PMS5003;43523;53.022;-1.178;2024-03-06T01:18:21;31;27;
57289;PMS5003;43523;53.022;-1.178;2024-03-06T01:19:23;37;32;
57289;PMS5003;43523;53.022;-1.178;2024-03-06T01:20:26;31;25;
57289;PMS5003;43523;53.022;-1.178;2024-03-06T01:21:28;28;25;
57289;PMS5003;43523;53.022;-1.178;2024-03-06T01:22:30;26;25;
57289;PMS5003;43523;53.022;-1.178;2024-03-06T01:23:33;28;25;
57289;PMS5003;43523;53.022;-1.178;2024-03-06T01:24:35;34;30;
57289;PMS5003;43523;53.022;-1.178;2024-03-06T01:25:38;39;31;
57289;PMS5003;43523;53.022;-1.178;2024-03-06T01:26:41;42;33;
57289;PMS5003;43523;53.022;-1.178;2024-03-06T01:27:43;32;29;
57289;PMS5003;43523;53.022;-1.178;2024-03-06T01:28:45;42;35;
57289;PMS5003;43523;53.022;-1.178;2024-03-06T01:29:47;35;28;
57289;PMS5003;43523;53.022;-1.178;2024-03-06T01:30:50;27;25;
57289;PMS5003;43523;53.022;-1.178;2024-03-06T01:31:52;35;32;
57289;PMS5003;43523;53.022;-1.178;2024-03-06T01:32:54;35;31;
57289;PMS5003;43523;53.022;-1.178;2024-03-06T01:34:02;35;34;
57289;PMS5003;43523;53.022;-1.178;2024-03-06T01:35:05;39;33;
57289;PMS5003;43523;53.022;-1.178;2024-03-06T01:36:08;34;30;
57289;PMS5003;43523;53.022;-1.178;2024-03-06T01:37:11;32;28;
57289;PMS5003;43523;53.022;-1.178;2024-03-06T01:38:13;42;34;
57289;PMS5003;43523;53.022;-1.178;2024-03-06T01:39:18;34;30;
57289;PMS5003;43523;53.022;-1.178;2024-03-06T01:40:20;37;32;
57289;PMS5003;43523;53.022;-1.178;2024-03-06T01:41:23;36;31;
57289;PMS5003;43523;53.022;-1.178;2024-03-06T01:42:25;35;27;
57289;PMS5003;43523;53.022;-1.178;2024-03-06T01:43:27;32;29;
57289;PMS5003;43523;53.022;-1.178;2024-03-06T01:44:29;31;29;
57289;PMS5003;43523;53.022;-1.178;2024-03-06T01:45:32;32;29;
57289;PMS5003;43523;53.022;-1.178;2024-03-06T01:46:34;43;38;
57289;PMS5003;43523;53.022;-1.178;2024-03-06T01:47:37;46;41;
57289;PMS5003;43523;53.022;-1.178;2024-03-06T01:48:40;35;29;
57289;PMS5003;43523;53.022;-1.178;2024-03-06T01:49:43;38;35;
57289;PMS5003;43523;53.022;-1.178;2024-03-06T01:50:46;30;26;
57289;PMS5003;43523;53.022;-1.178;2024-03-06T01:51:50;34;30;
57289;PMS5003;43523;53.022;-1.178;2024-03-06T01:52:54;34;31;
57289;PMS5003;43523;53.022;-1.178;2024-03-06T01:53:56;27;24;
57289;PMS5003;43523;53.022;-1.178;2024-03-06T01:55:02;29;27;
57289;PMS5003;43523;53.022;-1.178;2024-03-06T01:56:07;28;25;
57289;PMS5003;43523;53.022;-1.178;2024-03-06T01:57:11;34;31;
57289;PMS5003;43523;53.022;-1.178;2024-03-06T01:58:19;34;30;
57289;PMS5003;43523;53.022;-1.178;2024-03-06T01:59:22;39;32;
57289;PMS5003;43523;53.022;-1.178;2024-03-06T02:00:27;35;33;
57289;PMS5003;43523;53.022;-1.178;2024-03-06T02:01:30;38;34;
57289;PMS5003;43523;53.022;-1.178;2024-03-06T02:02:34;38;31;
57289;PMS5003;43523;53.022;-1.178;2024-03-06T02:03:36;37;30;
57289;PMS5003;43523;53.022;-1.178;2024-03-06T02:04:39;30;27;
57289;PMS5003;43523;53.022;-1.178;2024-03-06T02:05:42;36;33;
57289;PMS5003;43523;53.022;-1.178;2024-03-06T02:06:45;35;30;
57289;PMS5003;43523;53.022;-1.178;2024-03-06T02:07:47;32;30;
57289;PMS5003;43523;53.022;-1.178;2024-03-06T02:08:50;33;29;
57289;PMS5003;43523;53.022;-1.178;2024-03-06T02:09:53;35;24;
57289;PMS5003;43523;53.022;-1.178;2024-03-06T02:10:56;37;33;
57289;PMS5003;43523;53.022;-1.178;2024-03-06T02:11:58;29;26;
57289;PMS5003;43523;53.022;-1.178;2024-03-06T02:13:00;29;26;
57289;PMS5003;43523;53.022;-1.178;2024-03-06T02:14:09;37;33;
57289;PMS5003;43523;53.022;-1.178;2024-03-06T02:15:13;33;31;
57289;PMS5003;43523;53.022;-1.178;2024-03-06T02:16:15;34;30;
57289;PMS5003;43523;53.022;-1.178;2024-03-06T02:17:18;33;30;
57289;PMS5003;43523;53.022;-1.178;2024-03-06T02:18:23;32;27;
57289;PMS5003;43523;53.022;-1.178;2024-03-06T02:19:36;31;27;
57289;PMS5003;43523;53.022;-1.178;2024-03-06T02:20:39;32;27;
57289;PMS5003;43523;53.022;-1.178;2024-03-06T02:21:42;30;26;
57289;PMS5003;43523;53.022;-1.178;2024-03-06T02:22:44;37;33;
57289;PMS5003;43523;53.022;-1.178;2024-03-06T02:23:51;33;29;
57289;PMS5003;43523;53.022;-1.178;2024-03-06T02:24:54;38;30;
57289;PMS5003;43523;53.022;-1.178;2024-03-06T02:25:59;38;29;
57289;PMS5003;43523;53.022;-1.178;2024-03-06T02:27:02;32;26;
57289;PMS5003;43523;53.022;-1.178;2024-03-06T02:28:04;37;28;
57289;PMS5003;43523;53.022;-1.178;2024-03-06T02:29:09;32;27;
57289;PMS5003;43523;53.022;-1.178;2024-03-06T02:30:12;37;28;
57289;PMS5003;43523;53.022;-1.178;2024-03-06T02:31:16;30;27;
57289;PMS5003;43523;53.022;-1.178;2024-03-06T02:32:20;31;26;
57289;PMS5003;43523;53.022;-1.178;2024-03-06T02:33:25;33;30;
57289;PMS5003;43523;53.022;-1.178;2024-03-06T02:34:27;31;30;
57289;PMS5003;43523;53.022;-1.178;2024-03-06T02:35:29;31;27;
57289;PMS5003;43523;53.022;-1.178;2024-03-06T02:36:32;25;24;
57289;PMS5003;43523;53.022;-1.178;2024-03-06T02:37:35;27;27;
57289;PMS5003;43523;53.022;-1.178;2024-03-06T02:38:38;30;25;
57289;PMS5003;43523;53.022;-1.178;2024-03-06T02:39:42;33;30;
57289;PMS5003;43523;53.022;-1.178;2024-03-06T02:40:45;27;25;
57289;PMS5003;43523;53.022;-1.178;2024-03-06T02:41:48;34;29;
57289;PMS5003;43523;53.022;-1.178;2024-03-06T02:42:51;30;27;
57289;PMS5003;43523;53.022;-1.178;2024-03-06T02:43:53;48;40;
57289;PMS5003;43523;53.022;-1.178;2024-03-06T02:44:55;43;32;
57289;PMS5003;43523;53.022;-1.178;2024-03-06T02:45:57;36;34;
57289;PMS5003;43523;53.022;-1.178;2024-03-06T02:46:59;34;32;
57289;PMS5003;43523;53.022;-1.178;2024-03-06T02:48:06;31;27;
57289;PMS5003;43523;53.022;-1.178;2024-03-06T02:49:09;25;24;
57289;PMS5003;43523;53.022;-1.178;2024-03-06T02:50:11;33;23;
57289;PMS5003;43523;53.022;-1.178;2024-03-06T02:51:17;35;31;
57289;PMS5003;43523;53.022;-1.178;2024-03-06T02:52:21;36;33;
57289;PMS5003;43523;53.022;-1.178;2024-03-06T02:53:23;31;28;
57289;PMS5003;43523;53.022;-1.178;2024-03-06T02:54:25;32;24;
57289;PMS5003;43523;53.022;-1.178;2024-03-06T02:55:27;28;25;
57289;PMS5003;43523;53.022;-1.178;2024-03-06T02:56:29;31;28;
57289;PMS5003;43523;53.022;-1.178;2024-03-06T02:57:32;37;33;
57289;PMS5003;43523;53.022;-1.178;2024-03-06T02:58:35;41;32;
57289;PMS5003;43523;53.022;-1.178;2024-03-06T02:59:39;36;29;
57289;PMS5003;43523;53.022;-1.178;2024-03-06T03:00:42;41;31;
57289;PMS5003;43523;53.022;-1.178;2024-03-06T03:01:45;32;32;
57289;PMS5003;43523;53.022;-1.178;2024-03-06T03:02:47;34;32;
57289;PMS5003;43523;53.022;-1.178;2024-03-06T03:03:50;47;35;
57289;PMS5003;43523;53.022;-1.178;2024-03-06T03:04:52;37;33;
57289;PMS5003;43523;53.022;-1.178;2024-03-06T03:05:55;40;31;
57289;PMS5003;43523;53.022;-1.178;2024-03-06T03:06:57;36;34;
57289;PMS5003;43523;53.022;-1.178;2024-03-06T03:08:00;39;31;
57289;PMS5003;43523;53.022;-1.178;2024-03-06T03:09:02;35;33;
57289;PMS5003;43523;53.022;-1.178;2024-03-06T03:10:06;41;34;
57289;PMS5003;43523;53.022;-1.178;2024-03-06T03:11:09;40;30;
57289;PMS5003;43523;53.022;-1.178;2024-03-06T03:12:11;42;35;
57289;PMS5003;43523;53.022;-1.178;2024-03-06T03:13:13;36;32;
57289;PMS5003;43523;53.022;-1.178;2024-03-06T03:14:17;33;30;
57289;PMS5003;43523;53.022;-1.178;2024-03-06T03:15:19;37;31;
57289;PMS5003;43523;53.022;-1.178;2024-03-06T03:16:21;35;31;
57289;PMS5003;43523;53.022;-1.178;2024-03-06T03:17:23;37;34;
57289;PMS5003;43523;53.022;-1.178;2024-03-06T03:18:26;35;29;
57289;PMS5003;43523;53.022;-1.178;2024-03-06T03:19:28;36;31;
57289;PMS5003;43523;53.022;-1.178;2024-03-06T03:20:30;44;34;
57289;PMS5003;43523;53.022;-1.178;2024-03-06T03:21:33;42;36;
57289;PMS5003;43523;53.022;-1.178;2024-03-06T03:22:35;34;29;
57289;PMS5003;43523;53.022;-1.178;2024-03-06T03:23:38;44;33;
57289;PMS5003;43523;53.022;-1.178;2024-03-06T03:24:41;36;32;
57289;PMS5003;43523;53.022;-1.178;2024-03-06T03:25:44;38;30;
57289;PMS5003;43523;53.022;-1.178;2024-03-06T03:26:47;40;34;
57289;PMS5003;43523;53.022;-1.178;2024-03-06T03:27:50;38;34;
57289;PMS5003;43523;53.022;-1.178;2024-03-06T03:28:53;41;35;
57289;PMS5003;43523;53.022;-1.178;2024-03-06T03:29:55;40;33;
57289;PMS5003;43523;53.022;-1.178;2024-03-06T03:30:57;35;30;
57289;PMS5003;43523;53.022;-1.178;2024-03-06T03:31:59;32;26;
57289;PMS5003;43523;53.022;-1.178;2024-03-06T03:33:02;35;28;
57289;PMS5003;43523;53.022;-1.178;2024-03-06T03:34:06;37;32;
57289;PMS5003;43523;53.022;-1.178;2024-03-06T03:35:10;37;32;
57289;PMS5003;43523;53.022;-1.178;2024-03-06T03:36:12;29;28;
57289;PMS5003;43523;53.022;-1.178;2024-03-06T03:37:16;35;31;
57289;PMS5003;43523;53.022;-1.178;2024-03-06T03:38:18;37;32;
57289;PMS5003;43523;53.022;-1.178;2024-03-06T03:39:20;38;31;
57289;PMS5003;43523;53.022;-1.178;2024-03-06T03:40:22;37;33;
57289;PMS5003;43523;53.022;-1.178;2024-03-06T03:41:25;35;32;
57289;PMS5003;43523;53.022;-1.178;2024-03-06T03:42:33;39;35;
57289;PMS5003;43523;53.022;-1.178;2024-03-06T03:43:35;33;28;
57289;PMS5003;43523;53.022;-1.178;2024-03-06T03:44:38;40;30;
57289;PMS5003;43523;53.022;-1.178;2024-03-06T03:45:40;35;30;
57289;PMS5003;43523;53.022;-1.178;2024-03-06T03:46:43;36;33;
57289;PMS5003;43523;53.022;-1.178;2024-03-06T03:47:45;49;32;
57289;PMS5003;43523;53.022;-1.178;2024-03-06T03:48:47;47;37;
57289;PMS5003;43523;53.022;-1.178;2024-03-06T03:49:49;38;33;
57289;PMS5003;43523;53.022;-1.178;2024-03-06T03:50:52;37;32;
57289;PMS5003;43523;53.022;-1.178;2024-03-06T03:51:54;36;30;
57289;PMS5003;43523;53.022;-1.178;2024-03-06T03:52:58;38;32;
57289;PMS5003;43523;53.022;-1.178;2024-03-06T03:54:00;32;28;
57289;PMS5003;43523;53.022;-1.178;2024-03-06T03:55:04;38;31;
57289;PMS5003;43523;53.022;-1.178;2024-03-06T03:56:07;38;29;
57289;PMS5003;43523;53.022;-1.178;2024-03-06T03:57:10;34;29;
57289;PMS5003;43523;53.022;-1.178;2024-03-06T03:58:13;39;29;
57289;PMS5003;43523;53.022;-1.178;2024-03-06T03:59:15;37;30;
57289;PMS5003;43523;53.022;-1.178;2024-03-06T04:00:18;34;30;
57289;PMS5003;43523;53.022;-1.178;2024-03-06T04:01:21;33;28;
57289;PMS5003;43523;53.022;-1.178;2024-03-06T04:02:24;42;32;
57289;PMS5003;43523;53.022;-1.178;2024-03-06T04:03:26;40;31;
57289;PMS5003;43523;53.022;-1.178;2024-03-06T04:04:28;34;31;
57289;PMS5003;43523;53.022;-1.178;2024-03-06T04:05:32;40;36;
57289;PMS5003;43523;53.022;-1.178;2024-03-06T04:06:35;39;32;
57289;PMS5003;43523;53.022;-1.178;2024-03-06T04:07:37;47;35;
57289;PMS5003;43523;53.022;-1.178;2024-03-06T04:08:41;42;32;
57289;PMS5003;43523;53.022;-1.178;2024-03-06T04:09:44;38;33;
57289;PMS5003;43523;53.022;-1.178;2024-03-06T04:10:46;36;31;
57289;PMS5003;43523;53.022;-1.178;2024-03-06T04:11:49;31;30;
57289;PMS5003;43523;53.022;-1.178;2024-03-06T04:12:51;33;26;
57289;PMS5003;43523;53.022;-1.178;2024-03-06T04:13:54;42;37;
57289;PMS5003;43523;53.022;-1.178;2024-03-06T04:14:57;36;32;
57289;PMS5003;43523;53.022;-1.178;2024-03-06T04:16:00;43;35;
57289;PMS5003;43523;53.022;-1.178;2024-03-06T04:17:02;37;30;
57289;PMS5003;43523;53.022;-1.178;2024-03-06T04:18:10;35;30;
57289;PMS5003;43523;53.022;-1.178;2024-03-06T04:19:13;36;29;
57289;PMS5003;43523;53.022;-1.178;2024-03-06T04:20:20;33;30;
57289;PMS5003;43523;53.022;-1.178;2024-03-06T04:21:22;38;33;
57289;PMS5003;43523;53.022;-1.178;2024-03-06T04:22:25;45;35;
57289;PMS5003;43523;53.022;-1.178;2024-03-06T04:23:28;46;36;
57289;PMS5003;43523;53.022;-1.178;2024-03-06T04:24:30;41;35;
57289;PMS5003;43523;53.022;-1.178;2024-03-06T04:25:33;42;37;
57289;PMS5003;43523;53.022;-1.178;2024-03-06T04:26:35;37;32;
57289;PMS5003;43523;53.022;-1.178;2024-03-06T04:27:37;43;35;
57289;PMS5003;43523;53.022;-1.178;2024-03-06T04:28:40;42;36;
57289;PMS5003;43523;53.022;-1.178;2024-03-06T04:29:43;52;44;
57289;PMS5003;43523;53.022;-1.178;2024-03-06T04:30:46;39;32;
57289;PMS5003;43523;53.022;-1.178;2024-03-06T04:31:49;43;34;
57289;PMS5003;43523;53.022;-1.178;2024-03-06T04:32:51;42;37;
57289;PMS5003;43523;53.022;-1.178;2024-03-06T04:33:54;40;36;
57289;PMS5003;43523;53.022;-1.178;2024-03-06T04:34:57;40;33;
57289;PMS5003;43523;53.022;-1.178;2024-03-06T04:36:00;39;34;
57289;PMS5003;43523;53.022;-1.178;2024-03-06T04:37:04;31;31;
57289;PMS5003;43523;53.022;-1.178;2024-03-06T04:38:06;44;34;
57289;PMS5003;43523;53.022;-1.178;2024-03-06T04:39:08;43;37;
57289;PMS5003;43523;53.022;-1.178;2024-03-06T04:40:11;44;40;
57289;PMS5003;43523;53.022;-1.178;2024-03-06T04:41:13;40;35;
57289;PMS5003;43523;53.022;-1.178;2024-03-06T04:42:15;38;35;
57289;PMS5003;43523;53.022;-1.178;2024-03-06T04:43:18;41;35;
57289;PMS5003;43523;53.022;-1.178;2024-03-06T04:44:21;67;49;
57289;PMS5003;43523;53.022;-1.178;2024-03-06T04:45:24;40;35;
57289;PMS5003;43523;53.022;-1.178;2024-03-06T04:46:26;38;31;
57289;PMS5003;43523;53.022;-1.178;2024-03-06T04:47:28;34;30;
57289;PMS5003;43523;53.022;-1.178;2024-03-06T04:48:31;38;30;
57289;PMS5003;43523;53.022;-1.178;2024-03-06T04:49:33;40;33;
57289;PMS5003;43523;53.022;-1.178;2024-03-06T04:50:35;50;38;
57289;PMS5003;43523;53.022;-1.178;2024-03-06T04:51:38;33;32;
57289;PMS5003;43523;53.022;-1.178;2024-03-06T04:52:40;46;36;
57289;PMS5003;43523;53.022;-1.178;2024-03-06T04:53:43;40;35;
57289;PMS5003;43523;53.022;-1.178;2024-03-06T04:54:45;39;36;
57289;PMS5003;43523;53.022;-1.178;2024-03-06T04:55:47;36;30;
57289;PMS5003;43523;53.022;-1.178;2024-03-06T04:56:49;47;37;
57289;PMS5003;43523;53.022;-1.178;2024-03-06T04:57:52;93;55;
57289;PMS5003;43523;53.022;-1.178;2024-03-06T04:58:54;41;32;
57289;PMS5003;43523;53.022;-1.178;2024-03-06T04:59:57;34;30;
57289;PMS5003;43523;53.022;-1.178;2024-03-06T05:00:59;41;30;
57289;PMS5003;43523;53.022;-1.178;2024-03-06T05:02:01;38;30;
57289;PMS5003;43523;53.022;-1.178;2024-03-06T05:03:04;133;75;
57289;PMS5003;43523;53.022;-1.178;2024-03-06T05:04:07;33;30;
57289;PMS5003;43523;53.022;-1.178;2024-03-06T05:05:09;43;33;
57289;PMS5003;43523;53.022;-1.178;2024-03-06T05:06:11;42;39;
57289;PMS5003;43523;53.022;-1.178;2024-03-06T05:07:13;46;38;
57289;PMS5003;43523;53.022;-1.178;2024-03-06T05:08:16;37;30;
57289;PMS5003;43523;53.022;-1.178;2024-03-06T05:09:19;52;36;
57289;PMS5003;43523;53.022;-1.178;2024-03-06T05:10:21;44;38;
57289;PMS5003;43523;53.022;-1.178;2024-03-06T05:11:24;39;35;
57289;PMS5003;43523;53.022;-1.178;2024-03-06T05:12:27;44;37;
57289;PMS5003;43523;53.022;-1.178;2024-03-06T05:13:30;53;38;
57289;PMS5003;43523;53.022;-1.178;2024-03-06T05:14:34;45;38;
57289;PMS5003;43523;53.022;-1.178;2024-03-06T05:15:36;49;44;
57289;PMS5003;43523;53.022;-1.178;2024-03-06T05:16:38;43;38;
57289;PMS5003;43523;53.022;-1.178;2024-03-06T05:17:41;46;40;
57289;PMS5003;43523;53.022;-1.178;2024-03-06T05:18:44;47;40;
57289;PMS5003;43523;53.022;-1.178;2024-03-06T05:19:46;46;39;
57289;PMS5003;43523;53.022;-1.178;2024-03-06T05:20:49;48;39;
57289;PMS5003;43523;53.022;-1.178;2024-03-06T05:21:52;44;40;
57289;PMS5003;43523;53.022;-1.178;2024-03-06T05:22:54;64;44;
57289;PMS5003;43523;53.022;-1.178;2024-03-06T05:23:57;110;56;
57289;PMS5003;43523;53.022;-1.178;2024-03-06T05:25:00;52;43;
57289;PMS5003;43523;53.022;-1.178;2024-03-06T05:26:02;77;49;
57289;PMS5003;43523;53.022;-1.178;2024-03-06T05:27:04;45;40;
57289;PMS5003;43523;53.022;-1.178;2024-03-06T05:28:07;56;45;
57289;PMS5003;43523;53.022;-1.178;2024-03-06T05:29:09;53;43;
57289;PMS5003;43523;53.022;-1.178;2024-03-06T05:30:11;49;44;
57289;PMS5003;43523;53.022;-1.178;2024-03-06T05:31:15;52;41;
57289;PMS5003;43523;53.022;-1.178;2024-03-06T05:32:18;61;51;
57289;PMS5003;43523;53.022;-1.178;2024-03-06T05:33:21;61;53;
57289;PMS5003;43523;53.022;-1.178;2024-03-06T05:34:23;53;49;
57289;PMS5003;43523;53.022;-1.178;2024-03-06T05:35:26;57;45;
57289;PMS5003;43523;53.022;-1.178;2024-03-06T05:36:29;58;46;
57289;PMS5003;43523;53.022;-1.178;2024-03-06T05:37:31;61;48;
57289;PMS5003;43523;53.022;-1.178;2024-03-06T05:38:35;55;42;
57289;PMS5003;43523;53.022;-1.178;2024-03-06T05:39:37;52;43;
57289;PMS5003;43523;53.022;-1.178;2024-03-06T05:40:39;71;49;
57289;PMS5003;43523;53.022;-1.178;2024-03-06T05:41:41;59;45;
57289;PMS5003;43523;53.022;-1.178;2024-03-06T05:42:43;54;46;
57289;PMS5003;43523;53.022;-1.178;2024-03-06T05:43:46;51;42;
57289;PMS5003;43523;53.022;-1.178;2024-03-06T05:44:48;56;45;
57289;PMS5003;43523;53.022;-1.178;2024-03-06T05:45:51;51;41;
57289;PMS5003;43523;53.022;-1.178;2024-03-06T05:46:53;137;69;
57289;PMS5003;43523;53.022;-1.178;2024-03-06T05:47:56;109;66;
57289;PMS5003;43523;53.022;-1.178;2024-03-06T05:48:58;58;46;
57289;PMS5003;43523;53.022;-1.178;2024-03-06T05:50:01;59;54;
57289;PMS5003;43523;53.022;-1.178;2024-03-06T05:51:04;54;44;
57289;PMS5003;43523;53.022;-1.178;2024-03-06T05:52:08;60;50;
57289;PMS5003;43523;53.022;-1.178;2024-03-06T05:53:10;56;44;
57289;PMS5003;43523;53.022;-1.178;2024-03-06T05:54:13;53;44;
57289;PMS5003;43523;53.022;-1.178;2024-03-06T05:55:15;59;47;
57289;PMS5003;43523;53.022;-1.178;2024-03-06T05:56:18;58;47;
57289;PMS5003;43523;53.022;-1.178;2024-03-06T05:57:21;64;52;
57289;PMS5003;43523;53.022;-1.178;2024-03-06T05:58:23;59;48;
57289;PMS5003;43523;53.022;-1.178;2024-03-06T05:59:26;55;45;
57289;PMS5003;43523;53.022;-1.178;2024-03-06T06:00:28;90;51;
57289;PMS5003;43523;53.022;-1.178;2024-03-06T06:01:31;58;45;
57289;PMS5003;43523;53.022;-1.178;2024-03-06T06:02:34;58;44;
57289;PMS5003;43523;53.022;-1.178;2024-03-06T06:03:36;49;42;
57289;PMS5003;43523;53.022;-1.178;2024-03-06T06:04:39;49;41;
57289;PMS5003;43523;53.022;-1.178;2024-03-06T06:05:41;62;48;
57289;PMS5003;43523;53.022;-1.178;2024-03-06T06:06:49;47;39;
57289;PMS5003;43523;53.022;-1.178;2024-03-06T06:07:51;51;39;
57289;PMS5003;43523;53.022;-1.178;2024-03-06T06:08:54;45;36;
57289;PMS5003;43523;53.022;-1.178;2024-03-06T06:09:56;67;48;
57289;PMS5003;43523;53.022;-1.178;2024-03-06T06:10:58;59;40;
57289;PMS5003;43523;53.022;-1.178;2024-03-06T06:12:01;48;38;
57289;PMS5003;43523;53.022;-1.178;2024-03-06T06:13:04;53;45;
57289;PMS5003;43523;53.022;-1.178;2024-03-06T06:14:06;48;41;
57289;PMS5003;43523;53.022;-1.178;2024-03-06T06:15:09;55;45;
57289;PMS5003;43523;53.022;-1.178;2024-03-06T06:16:12;42;38;
57289;PMS5003;43523;53.022;-1.178;2024-03-06T06:17:15;51;45;
57289;PMS5003;43523;53.022;-1.178;2024-03-06T06:18:17;56;45;
57289;PMS5003;43523;53.022;-1.178;2024-03-06T06:19:20;49;42;
57289;PMS5003;43523;53.022;-1.178;2024-03-06T06:20:23;63;44;
57289;PMS5003;43523;53.022;-1.178;2024-03-06T06:21:25;48;39;
57289;PMS5003;43523;53.022;-1.178;2024-03-06T06:22:28;55;39;
57289;PMS5003;43523;53.022;-1.178;2024-03-06T06:23:31;47;41;
57289;PMS5003;43523;53.022;-1.178;2024-03-06T06:24:34;61;45;
57289;PMS5003;43523;53.022;-1.178;2024-03-06T06:25:36;57;46;
57289;PMS5003;43523;53.022;-1.178;2024-03-06T06:26:39;61;45;
57289;PMS5003;43523;53.022;-1.178;2024-03-06T06:27:42;68;51;
57289;PMS5003;43523;53.022;-1.178;2024-03-06T06:28:44;51;41;
57289;PMS5003;43523;53.022;-1.178;2024-03-06T06:29:46;54;40;
57289;PMS5003;43523;53.022;-1.178;2024-03-06T06:30:49;53;41;
57289;PMS5003;43523;53.022;-1.178;2024-03-06T06:31:52;45;41;
57289;PMS5003;43523;53.022;-1.178;2024-03-06T06:32:55;53;42;
57289;PMS5003;43523;53.022;-1.178;2024-03-06T06:33:59;52;39;
57289;PMS5003;43523;53.022;-1.178;2024-03-06T06:35:02;54;40;
57289;PMS5003;43523;53.022;-1.178;2024-03-06T06:36:06;46;42;
57289;PMS5003;43523;53.022;-1.178;2024-03-06T06:37:08;50;41;
57289;PMS5003;43523;53.022;-1.178;2024-03-06T06:38:11;53;41;
57289;PMS5003;43523;53.022;-1.178;2024-03-06T06:39:14;54;47;
57289;PMS5003;43523;53.022;-1.178;2024-03-06T06:40:18;56;47;
57289;PMS5003;43523;53.022;-1.178;2024-03-06T06:41:20;49;43;
57289;PMS5003;43523;53.022;-1.178;2024-03-06T06:42:23;51;40;
57289;PMS5003;43523;53.022;-1.178;2024-03-06T06:43:36;53;39;
57289;PMS5003;43523;53.022;-1.178;2024-03-06T06:44:39;53;39;
57289;PMS5003;43523;53.022;-1.178;2024-03-06T06:45:41;51;41;
57289;PMS5003;43523;53.022;-1.178;2024-03-06T06:46:44;49;35;
57289;PMS5003;43523;53.022;-1.178;2024-03-06T06:47:47;49;44;
57289;PMS5003;43523;53.022;-1.178;2024-03-06T06:48:51;49;41;
57289;PMS5003;43523;53.022;-1.178;2024-03-06T06:49:54;43;38;
57289;PMS5003;43523;53.022;-1.178;2024-03-06T06:50:56;53;43;